createdAt,value
2023-01-29T00:02:20.047Z,-2.71
2023-01-29T00:04:47.323Z,-2.81
2023-01-29T00:07:14.688Z,-2.88
2023-01-29T00:09:41.915Z,-2.77
2023-01-29T00:12:09.190Z,-2.87
2023-01-29T00:14:36.434Z,-3.10
2023-01-29T00:17:03.812Z,-2.74
2023-01-29T00:19:31.046Z,-2.55
2023-01-29T00:21:58.635Z,-2.70
2023-01-29T00:24:25.884Z,-2.69
2023-01-29T00:26:53.218Z,-2.68
2023-01-29T00:29:22.065Z,-2.63
2023-01-29T00:31:49.858Z,-2.63
2023-01-29T00:34:17.329Z,-2.76
2023-01-29T00:36:45.630Z,-2.67
2023-01-29T00:39:13.352Z,-2.67
2023-01-29T00:41:59.059Z,-2.82
2023-01-29T00:44:45.118Z,-2.88
2023-01-29T00:47:31.036Z,-2.85
2023-01-29T00:49:58.420Z,-2.70
2023-01-29T00:52:26.168Z,-2.59
2023-01-29T00:54:56.226Z,-2.60
2023-01-29T00:57:25.968Z,-2.60
2023-01-29T00:59:54.673Z,-2.68
2023-01-29T01:02:41.866Z,-2.71
2023-01-29T01:05:14.293Z,-2.77
2023-01-29T01:07:42.260Z,-2.80
2023-01-29T01:10:23.354Z,-2.84
2023-01-29T01:13:03.847Z,-3.01
2023-01-29T01:15:40.359Z,-2.72
2023-01-29T01:18:08.219Z,-2.84
2023-01-29T01:20:37.034Z,-2.85
2023-01-29T01:23:04.558Z,-2.64
2023-01-29T01:25:32.256Z,-2.76
2023-01-29T01:28:03.004Z,-2.70
2023-01-29T01:30:30.276Z,-2.70
2023-01-29T01:32:57.856Z,-2.79
2023-01-29T01:35:25.244Z,-2.78
2023-01-29T01:37:52.788Z,-3.04
2023-01-29T01:40:22.938Z,-3.02
2023-01-29T01:42:56.511Z,-2.84
2023-01-29T01:45:36.341Z,-2.83
2023-01-29T01:48:08.218Z,-2.91
2023-01-29T01:50:46.874Z,-3.09
2023-01-29T01:53:21.690Z,-2.96
2023-01-29T01:56:02.301Z,-2.80
2023-01-29T01:58:39.106Z,-2.81
2023-01-29T02:01:08.992Z,-2.80
2023-01-29T02:04:09.303Z,-2.98
2023-01-29T02:06:59.331Z,-2.85
2023-01-29T02:09:39.655Z,-2.96
2023-01-29T02:12:11.841Z,-2.76
2023-01-29T02:14:41.545Z,-2.81
2023-01-29T02:17:16.740Z,-2.92
2023-01-29T02:20:15.167Z,-2.71
2023-01-29T02:23:23.373Z,-2.91
2023-01-29T02:26:10.944Z,-3.04
2023-01-29T02:29:22.578Z,-3.01
2023-01-29T02:32:26.379Z,-3.13
2023-01-29T02:35:30.055Z,-2.93
2023-01-29T02:38:29.562Z,-2.73
2023-01-29T02:41:29.027Z,-2.66
2023-01-29T02:44:16.937Z,-2.70
2023-01-29T02:46:52.283Z,-2.68
2023-01-29T02:49:35.848Z,-2.79
2023-01-29T02:52:34.898Z,-2.87
2023-01-29T02:55:13.700Z,-2.85
2023-01-29T02:57:46.578Z,-2.69
2023-01-29T03:00:26.562Z,-2.71
2023-01-29T03:03:45.199Z,-2.67
2023-01-29T03:06:24.151Z,-2.93
2023-01-29T03:09:10.079Z,-2.89
2023-01-29T03:11:46.744Z,-2.87
2023-01-29T03:14:59.098Z,-2.78
2023-01-29T03:17:34.032Z,-2.65
2023-01-29T03:20:03.139Z,-2.75
2023-01-29T03:22:31.086Z,-2.73
2023-01-29T03:25:20.421Z,-2.81
2023-01-29T03:28:16.251Z,-2.84
2023-01-29T03:31:12.234Z,-2.75
2023-01-29T03:34:24.699Z,-2.79
2023-01-29T03:37:09.463Z,-2.92
2023-01-29T03:39:37.245Z,-2.87
2023-01-29T03:42:34.856Z,-2.58
2023-01-29T03:45:36.907Z,-2.60
2023-01-29T03:48:06.902Z,-2.98
2023-01-29T03:50:45.864Z,-2.81
2023-01-29T03:53:44.139Z,-2.80
2023-01-29T03:56:52.940Z,-3.03
2023-01-29T03:59:53.700Z,-3.02
2023-01-29T04:03:07.904Z,-3.22
2023-01-29T04:06:05.518Z,-3.13
2023-01-29T04:08:59.419Z,-2.87
2023-01-29T04:11:31.754Z,-2.70
2023-01-29T04:13:59.550Z,-2.77
2023-01-29T04:16:37.153Z,-2.74
2023-01-29T04:19:31.072Z,-2.97
2023-01-29T04:22:24.457Z,-2.96
2023-01-29T04:24:54.571Z,-3.05
2023-01-29T04:27:44.113Z,-2.84
2023-01-29T04:30:50.480Z,-2.92
2023-01-29T04:33:33.085Z,-2.87
2023-01-29T04:36:45.849Z,-2.81
2023-01-29T04:39:29.978Z,-2.79
2023-01-29T04:42:31.253Z,-2.67
2023-01-29T04:45:30.437Z,-2.62
2023-01-29T04:48:22.758Z,-2.67
2023-01-29T04:51:12.983Z,-2.50
2023-01-29T04:54:29.619Z,-2.77
2023-01-29T04:57:46.302Z,-2.53
2023-01-29T05:00:24.663Z,-2.65
2023-01-29T05:02:53.358Z,-2.74
2023-01-29T05:05:21.806Z,-2.88
2023-01-29T05:07:49.783Z,-2.61
2023-01-29T05:10:20.407Z,-2.61
2023-01-29T05:12:55.168Z,-2.51
2023-01-29T05:15:37.464Z,-2.41
2023-01-29T05:18:08.854Z,-2.52
2023-01-29T05:20:40.437Z,-2.41
2023-01-29T05:23:22.285Z,-2.45
2023-01-29T05:25:51.955Z,-2.59
2023-01-29T05:28:19.745Z,-2.68
2023-01-29T05:30:50.412Z,-2.72
2023-01-29T05:33:21.048Z,-2.76
2023-01-29T05:35:49.271Z,-2.83
2023-01-29T05:38:20.075Z,-2.63
2023-01-29T05:40:48.216Z,-2.79
2023-01-29T05:43:23.710Z,-2.89
2023-01-29T05:46:01.577Z,-3.00
2023-01-29T05:48:31.527Z,-2.91
2023-01-29T05:51:03.971Z,-2.77
2023-01-29T05:53:32.629Z,-2.80
2023-01-29T05:56:05.204Z,-2.89
2023-01-29T05:58:33.693Z,-3.21
2023-01-29T06:01:13.947Z,-3.25
2023-01-29T06:03:41.459Z,-2.88
2023-01-29T06:06:09.320Z,-3.05
2023-01-29T06:08:36.892Z,-3.02
2023-01-29T06:11:04.865Z,-3.22
2023-01-29T06:13:32.118Z,-3.02
2023-01-29T06:15:59.354Z,-2.90
2023-01-29T06:18:26.705Z,-2.99
2023-01-29T06:20:54.003Z,-2.82
2023-01-29T06:23:21.232Z,-2.82
2023-01-29T06:25:48.487Z,-2.78
2023-01-29T06:28:15.682Z,-2.88
2023-01-29T06:30:43.039Z,-2.57
2023-01-29T06:33:10.337Z,-2.72
2023-01-29T06:35:37.517Z,-3.02
2023-01-29T06:38:04.717Z,-2.97
2023-01-29T06:40:32.001Z,-2.98
2023-01-29T06:43:01.533Z,-2.98
2023-01-29T06:45:28.893Z,-3.07
2023-01-29T06:47:58.016Z,-2.87
2023-01-29T06:50:26.043Z,-3.06
2023-01-29T06:52:53.332Z,-3.19
2023-01-29T06:55:20.664Z,-2.91
2023-01-29T06:57:47.890Z,-3.15
2023-01-29T07:00:17.370Z,-3.12
2023-01-29T07:02:50.344Z,-3.26
2023-01-29T07:05:17.794Z,-3.34
2023-01-29T07:07:45.036Z,-3.42
2023-01-29T07:10:12.416Z,-3.12
2023-01-29T07:12:39.543Z,-3.00
2023-01-29T07:15:07.724Z,-3.22
2023-01-29T07:17:34.966Z,-3.18
2023-01-29T07:20:02.325Z,-3.02
2023-01-29T07:22:29.536Z,-2.84
2023-01-29T07:24:56.762Z,-3.01
2023-01-29T07:27:24.432Z,-3.28
2023-01-29T07:29:51.728Z,-3.33
2023-01-29T07:32:18.952Z,-3.20
2023-01-29T07:34:46.297Z,-3.02
2023-01-29T07:37:13.729Z,-2.82
2023-01-29T07:39:41.092Z,-2.78
2023-01-29T07:42:08.389Z,-2.90
2023-01-29T07:44:35.685Z,-2.72
2023-01-29T07:47:05.477Z,-2.52
2023-01-29T07:49:32.789Z,-2.01
2023-01-29T07:52:00.119Z,-1.93
2023-01-29T07:54:27.490Z,-1.96
2023-01-29T07:57:02.058Z,-1.97
2023-01-29T07:59:29.472Z,-1.81
2023-01-29T08:01:57.116Z,-1.57
2023-01-29T08:04:24.633Z,-1.38
2023-01-29T08:06:51.991Z,-1.17
2023-01-29T08:09:19.353Z,-1.23
2023-01-29T08:11:46.712Z,-1.12
2023-01-29T08:14:14.078Z,-1.44
2023-01-29T08:16:41.438Z,-1.25
2023-01-29T08:19:08.770Z,-1.44
2023-01-29T08:21:36.317Z,-1.49
2023-01-29T08:24:04.117Z,-1.17
2023-01-29T08:26:31.337Z,-0.97
2023-01-29T08:28:58.766Z,-0.13
2023-01-29T08:31:26.126Z,-0.52
2023-01-29T08:33:55.543Z,-0.45
2023-01-29T08:36:23.008Z,-0.21
2023-01-29T08:38:50.433Z,0.11
2023-01-29T08:41:17.754Z,0.00
2023-01-29T08:43:46.607Z,0.20
2023-01-29T08:46:14.165Z,0.52
2023-01-29T08:48:41.455Z,3.02
2023-01-29T08:51:09.964Z,4.02
2023-01-29T08:53:37.399Z,5.44
2023-01-29T08:56:05.181Z,5.44
2023-01-29T08:58:32.608Z,6.73
2023-01-29T09:01:12.050Z,7.28
2023-01-29T09:03:44.693Z,8.65
2023-01-29T09:06:14.555Z,7.73
2023-01-29T09:08:42.366Z,7.63
2023-01-29T09:11:10.732Z,9.32
2023-01-29T09:13:38.018Z,9.46
2023-01-29T09:16:05.860Z,8.59
2023-01-29T09:18:33.198Z,6.75
2023-01-29T09:21:02.100Z,7.24
2023-01-29T09:23:30.716Z,9.24
2023-01-29T09:25:58.183Z,9.52
2023-01-29T09:28:25.906Z,7.97
2023-01-29T09:30:53.653Z,9.10
2023-01-29T09:33:21.036Z,9.39
2023-01-29T09:35:48.659Z,9.91
2023-01-29T09:38:17.013Z,8.61
2023-01-29T09:41:32.259Z,9.10
2023-01-29T09:44:09.613Z,11.02
2023-01-29T09:46:47.369Z,8.46
2023-01-29T09:49:34.297Z,7.05
2023-01-29T09:52:24.870Z,5.86
2023-01-29T09:55:07.468Z,3.87
2023-01-29T09:57:49.283Z,3.74
2023-01-29T10:00:36.473Z,3.72
2023-01-29T10:03:09.496Z,3.32
2023-01-29T10:06:04.251Z,2.29
2023-01-29T10:08:46.640Z,0.42
2023-01-29T10:11:56.988Z,-0.03
2023-01-29T10:15:02.223Z,-0.09
2023-01-29T10:17:40.188Z,0.14
2023-01-29T10:20:25.140Z,-0.33
2023-01-29T10:23:13.792Z,-0.27
2023-01-29T10:25:45.148Z,-0.43
2023-01-29T10:28:50.229Z,-0.43
2023-01-29T10:31:34.349Z,-0.05
2023-01-29T10:34:16.777Z,-0.32
2023-01-29T10:36:47.330Z,-0.40
2023-01-29T10:39:21.117Z,-0.18
2023-01-29T10:42:11.146Z,-1.08
2023-01-29T10:45:04.245Z,-0.60
2023-01-29T10:47:55.661Z,-0.95
2023-01-29T10:51:14.736Z,-0.75
2023-01-29T10:54:25.537Z,-0.77
2023-01-29T10:57:09.536Z,-0.68
2023-01-29T11:00:11.018Z,-0.22
2023-01-29T11:02:48.656Z,-0.36
2023-01-29T11:05:51.772Z,-0.07
2023-01-29T11:08:24.782Z,-0.39
2023-01-29T11:11:11.898Z,-0.60
2023-01-29T11:14:00.343Z,-0.86
2023-01-29T11:16:33.360Z,-0.78
2023-01-29T11:19:01.993Z,-0.29
2023-01-29T11:21:30.243Z,0.11
2023-01-29T11:24:18.767Z,0.13
2023-01-29T11:26:49.702Z,-0.01
2023-01-29T11:29:48.355Z,0.18
2023-01-29T11:32:26.747Z,0.67
2023-01-29T11:35:15.206Z,1.36
2023-01-29T11:37:46.037Z,1.14
2023-01-29T11:40:19.197Z,0.32
2023-01-29T11:42:47.855Z,1.37
2023-01-29T11:45:29.987Z,6.49
2023-01-29T11:47:58.342Z,8.28
2023-01-29T11:50:33.938Z,7.85
2023-01-29T11:53:03.307Z,6.28
2023-01-29T11:55:49.791Z,5.34
2023-01-29T11:58:32.466Z,9.13
2023-01-29T12:01:00.989Z,5.22
2023-01-29T12:03:41.537Z,2.99
2023-01-29T12:06:37.537Z,2.74
2023-01-29T12:09:17.509Z,1.53
2023-01-29T12:11:45.213Z,1.63
2023-01-29T12:14:34.348Z,4.16
2023-01-29T12:17:34.149Z,4.36
2023-01-29T12:20:12.997Z,3.22
2023-01-29T12:23:11.009Z,2.71
2023-01-29T12:26:09.205Z,2.08
2023-01-29T12:28:45.090Z,2.18
2023-01-29T12:31:53.503Z,1.41
2023-01-29T12:34:48.355Z,1.96
2023-01-29T12:37:28.943Z,2.14
2023-01-29T12:39:56.447Z,2.79
2023-01-29T12:42:25.605Z,2.99
2023-01-29T12:45:01.579Z,2.23
2023-01-29T12:47:52.088Z,3.12
2023-01-29T12:50:37.670Z,3.26
2023-01-29T12:53:41.380Z,3.98
2023-01-29T12:56:31.797Z,3.11
2023-01-29T12:59:04.913Z,3.28
2023-01-29T13:02:06.006Z,2.19
2023-01-29T13:04:47.117Z,2.62
2023-01-29T13:07:20.727Z,2.65
2023-01-29T13:09:53.332Z,2.06
2023-01-29T13:12:23.276Z,1.33
2023-01-29T13:15:02.898Z,1.55
2023-01-29T13:17:58.420Z,0.85
2023-01-29T13:20:37.641Z,0.75
2023-01-29T13:23:26.061Z,0.81
2023-01-29T13:25:54.848Z,0.55
2023-01-29T13:28:26.730Z,0.17
2023-01-29T13:31:28.658Z,0.39
2023-01-29T13:34:20.560Z,0.36
2023-01-29T13:36:59.638Z,-0.21
2023-01-29T13:39:44.594Z,-0.54
2023-01-29T14:02:30.274Z,-0.65
2023-01-29T14:05:29.703Z,-0.48
2023-01-29T14:08:13.462Z,-0.59
2023-01-29T14:10:42.455Z,-0.70
2023-01-29T14:13:18.959Z,-0.59
2023-01-29T14:15:59.461Z,-1.06
2023-01-29T14:18:29.245Z,-0.97
2023-01-29T14:21:20.659Z,-1.09
2023-01-29T14:23:54.442Z,-1.09
2023-01-29T14:26:30.304Z,-0.99
2023-01-29T14:29:14.440Z,-1.10
2023-01-29T14:31:55.408Z,-1.08
2023-01-29T14:34:31.116Z,-1.25
2023-01-29T14:37:34.441Z,-1.20
2023-01-29T14:40:27.557Z,-1.26
2023-01-29T14:43:20.899Z,-1.38
2023-01-29T14:45:49.935Z,-1.34
2023-01-29T14:48:48.684Z,-1.28
2023-01-29T14:51:20.350Z,-1.38
2023-01-29T14:54:19.301Z,-1.40
2023-01-29T14:57:17.634Z,-1.53
2023-01-29T15:00:02.960Z,-1.55
2023-01-29T15:02:43.531Z,-1.78
2023-01-29T15:05:23.979Z,-1.64
2023-01-29T15:08:06.245Z,-1.72
2023-01-29T15:11:15.494Z,-1.71
2023-01-29T15:13:52.283Z,-1.76
2023-01-29T15:16:51.815Z,-1.93
2023-01-29T15:19:31.473Z,-1.84
2023-01-29T15:22:29.404Z,-1.83
2023-01-29T15:25:05.135Z,-2.02
2023-01-29T15:27:32.814Z,-2.04
2023-01-29T15:30:04.776Z,-2.10
2023-01-29T15:32:36.783Z,-2.18
2023-01-29T15:35:43.628Z,-2.18
2023-01-29T15:38:25.508Z,-2.32
2023-01-29T15:40:53.954Z,-2.35
2023-01-29T15:43:35.172Z,-2.33
2023-01-29T15:46:10.952Z,-2.45
2023-01-29T15:48:42.833Z,-2.56
2023-01-29T15:51:20.325Z,-2.66
2023-01-29T15:53:59.497Z,-2.70
2023-01-29T15:56:35.936Z,-2.79
2023-01-29T15:59:09.786Z,-2.86
2023-01-29T16:01:37.460Z,-3.01
2023-01-29T16:04:05.292Z,-3.06
2023-01-29T16:06:38.946Z,-3.02
2023-01-29T16:09:07.368Z,-3.17
2023-01-29T16:11:37.759Z,-3.14
2023-01-29T16:14:06.593Z,-3.13
2023-01-29T16:16:33.946Z,-3.15
2023-01-29T16:19:01.609Z,-3.16
2023-01-29T16:21:41.502Z,-3.19
2023-01-29T16:24:14.091Z,-3.33
2023-01-29T16:26:47.786Z,-3.27
2023-01-29T16:29:19.268Z,-3.44
2023-01-29T16:31:48.763Z,-3.52
2023-01-29T16:34:29.241Z,-3.47
2023-01-29T16:36:57.689Z,-3.47
2023-01-29T16:39:32.869Z,-3.58
2023-01-29T16:42:19.836Z,-3.63
2023-01-29T16:44:59.860Z,-3.64
2023-01-29T16:47:36.138Z,-3.48
2023-01-29T16:50:46.412Z,-3.43
2023-01-29T16:53:24.642Z,-3.45
2023-01-29T16:55:53.291Z,-3.48
2023-01-29T16:58:25.374Z,-3.51
2023-01-29T17:01:03.100Z,-3.53
2023-01-29T17:03:33.920Z,-3.44
2023-01-29T17:06:12.496Z,-3.44
2023-01-29T17:08:43.078Z,-3.43
2023-01-29T17:11:13.839Z,-3.46
2023-01-29T17:13:45.587Z,-3.37
2023-01-29T17:16:46.698Z,-3.57
2023-01-29T17:19:20.913Z,-3.52
2023-01-29T17:21:53.447Z,-3.50
2023-01-29T17:24:20.661Z,-3.70
2023-01-29T17:26:48.099Z,-3.69
2023-01-29T17:29:20.942Z,-3.64
2023-01-29T17:31:48.319Z,-3.74
2023-01-29T17:34:17.961Z,-3.81
2023-01-29T17:36:46.149Z,-3.92
2023-01-29T17:39:24.490Z,-4.13
2023-01-29T17:41:55.071Z,-4.44
2023-01-29T17:44:22.874Z,-4.49
2023-01-29T17:46:50.779Z,-4.40
2023-01-29T17:49:24.365Z,-4.29
2023-01-29T17:51:53.679Z,-4.33
2023-01-29T17:54:22.563Z,-4.36
2023-01-29T17:56:51.641Z,-4.45
2023-01-29T17:59:29.785Z,-4.39
2023-01-29T18:01:57.653Z,-4.48
2023-01-29T18:04:25.794Z,-4.50
2023-01-29T18:06:54.449Z,-4.43
2023-01-29T18:09:22.402Z,-4.41
2023-01-29T18:11:51.101Z,-4.46
2023-01-29T18:14:18.678Z,-4.41
2023-01-29T18:16:46.764Z,-4.53
2023-01-29T18:19:20.812Z,-4.45
2023-01-29T18:21:51.092Z,-4.45
2023-01-29T18:24:20.496Z,-4.53
2023-01-29T18:26:49.684Z,-4.56
2023-01-29T18:29:17.143Z,-4.37
2023-01-29T18:31:44.430Z,-4.22
2023-01-29T18:34:11.827Z,-4.18
2023-01-29T18:36:46.791Z,-4.11
2023-01-29T18:39:15.592Z,-4.02
2023-01-29T18:41:43.122Z,-4.07
2023-01-29T18:44:13.399Z,-3.96
2023-01-29T18:46:41.488Z,-3.86
2023-01-29T18:49:09.058Z,-3.86
2023-01-29T18:51:36.674Z,-3.85
2023-01-29T18:54:04.436Z,-3.67
2023-01-29T18:56:34.371Z,-3.32
2023-01-29T18:59:01.702Z,-3.26
2023-01-29T19:01:29.059Z,-3.14
2023-01-29T19:03:59.225Z,-3.17
2023-01-29T19:06:26.592Z,-3.01
2023-01-29T19:08:53.991Z,-3.23
2023-01-29T19:11:21.342Z,-3.38
2023-01-29T19:13:49.824Z,-3.61
2023-01-29T19:16:17.536Z,-3.79
2023-01-29T19:18:44.982Z,-3.72
2023-01-29T19:21:14.741Z,-3.78
2023-01-29T19:23:45.128Z,-3.79
2023-01-29T19:26:15.635Z,-3.70
2023-01-29T19:28:43.251Z,-3.47
2023-01-29T19:31:11.508Z,-3.46
2023-01-29T19:33:39.409Z,-3.63
2023-01-29T19:36:10.483Z,-3.65
2023-01-29T19:38:38.881Z,-3.60
2023-01-29T19:41:06.663Z,-3.60
2023-01-29T19:43:34.494Z,-3.46
2023-01-29T19:46:02.707Z,-3.38
2023-01-29T19:48:30.348Z,-3.43
2023-01-29T19:51:10.394Z,-3.52
2023-01-29T19:53:44.907Z,-3.64
2023-01-29T19:56:15.977Z,-3.70
2023-01-29T19:58:44.756Z,-3.79
2023-01-29T20:01:19.145Z,-3.84
2023-01-29T20:03:49.445Z,-3.87
2023-01-29T20:06:19.991Z,-3.70
2023-01-29T20:08:47.391Z,-3.51
2023-01-29T20:11:19.685Z,-3.49
2023-01-29T20:13:49.769Z,-3.53
2023-01-29T20:16:18.668Z,-3.46
2023-01-29T20:18:46.272Z,-3.62
2023-01-29T20:21:20.501Z,-3.49
2023-01-29T20:23:50.413Z,-3.33
2023-01-29T20:26:19.188Z,-3.45
2023-01-29T20:28:56.772Z,-3.44
2023-01-29T20:31:24.060Z,-3.40
2023-01-29T20:33:51.416Z,-3.43
2023-01-29T20:36:18.808Z,-3.48
2023-01-29T20:38:46.272Z,-3.70
2023-01-29T20:41:16.830Z,-3.77
2023-01-29T20:43:47.462Z,-3.54
2023-01-29T20:46:15.366Z,-3.44
2023-01-29T20:48:43.045Z,-3.58
2023-01-29T20:51:15.456Z,-3.60
2023-01-29T20:53:46.843Z,-3.63
2023-01-29T20:56:17.303Z,-3.62
2023-01-29T20:58:46.999Z,-3.82
2023-01-29T21:01:18.658Z,-3.77
2023-01-29T21:03:47.098Z,-3.54
2023-01-29T21:06:14.957Z,-3.68
2023-01-29T21:08:42.747Z,-3.75
2023-01-29T21:11:10.599Z,-3.47
2023-01-29T21:13:38.443Z,-3.51
2023-01-29T21:16:06.475Z,-3.54
2023-01-29T21:18:33.782Z,-3.66
2023-01-29T21:21:01.021Z,-3.62
2023-01-29T21:23:28.251Z,-3.39
2023-01-29T21:26:03.574Z,-3.18
2023-01-29T21:28:34.017Z,-3.09
2023-01-29T21:31:12.802Z,-3.22
2023-01-29T21:33:40.447Z,-3.02
2023-01-29T21:36:10.059Z,-2.96
2023-01-29T21:38:37.877Z,-2.84
2023-01-29T21:41:09.687Z,-2.76
2023-01-29T21:43:39.059Z,-2.77
2023-01-29T21:46:15.608Z,-2.83
2023-01-29T21:48:43.253Z,-2.78
2023-01-29T21:51:10.462Z,-2.77
2023-01-29T21:53:39.965Z,-2.79
2023-01-29T21:56:09.535Z,-2.66
2023-01-29T21:58:36.811Z,-2.80
2023-01-29T22:01:15.725Z,-2.68
2023-01-29T22:03:51.713Z,-2.72
2023-01-29T22:06:22.113Z,-2.65
2023-01-29T22:08:50.391Z,-2.84
2023-01-29T22:11:17.740Z,-3.00
2023-01-29T22:13:44.964Z,-3.07
2023-01-29T22:16:12.294Z,-3.12
2023-01-29T22:18:39.526Z,-3.34
2023-01-29T22:21:06.919Z,-3.39
2023-01-29T22:23:34.088Z,-3.34
2023-01-29T22:26:06.385Z,-3.37
2023-01-29T22:28:33.764Z,-3.68
2023-01-29T22:31:02.967Z,-3.77
2023-01-29T22:33:30.558Z,-3.81
2023-01-29T22:35:58.019Z,-3.70
2023-01-29T22:38:25.422Z,-3.80
2023-01-29T22:40:54.508Z,-4.08
2023-01-29T22:43:23.079Z,-4.07
2023-01-29T22:45:50.275Z,-4.16
2023-01-29T22:48:17.552Z,-4.41
2023-01-29T22:50:53.942Z,-4.33
2023-01-29T22:53:21.217Z,-4.40
2023-01-29T22:55:55.686Z,-4.63
2023-01-29T22:58:22.951Z,-4.98
2023-01-29T23:00:51.367Z,-4.80
2023-01-29T23:03:18.604Z,-4.90
2023-01-29T23:05:45.948Z,-4.91
2023-01-29T23:08:13.251Z,-4.79
2023-01-29T23:10:40.461Z,-4.85
2023-01-29T23:13:07.951Z,-4.72
2023-01-29T23:15:35.251Z,-4.73
2023-01-29T23:18:03.790Z,-4.72
2023-01-29T23:20:31.387Z,-4.90
2023-01-29T23:22:58.806Z,-4.78
2023-01-29T23:25:46.306Z,-4.85
2023-01-29T23:28:13.850Z,-4.94
2023-01-29T23:30:41.145Z,-4.94
2023-01-29T23:33:11.857Z,-5.01
2023-01-29T23:35:39.443Z,-4.85
2023-01-29T23:38:06.576Z,-4.80
2023-01-29T23:40:33.781Z,-4.70
2023-01-29T23:43:01.058Z,-4.79
2023-01-29T23:45:28.289Z,-5.03
2023-01-29T23:47:57.942Z,-5.43
2023-01-29T23:50:25.155Z,-5.78
2023-01-29T23:52:52.422Z,-5.92
2023-01-29T23:55:19.608Z,-5.93
2023-01-29T23:57:46.931Z,-5.69
